Terminal Aerodrome Forecast
Issued by NWS Atlanta, GA

Home | Current Version | Previous Version | Text Only | Print | Product List | Glossary On
Versions: 1 2 3 4 5 6 7 8 9 10 11 12 13 14 15 16 17 18 19 20 21 22 23 24 25 26 27 28 29 30 31 32 33 34 35 36 37 38
000
FTAK31 PAJN 121400 AAA
TAFAHN
TAF AMD
PAHN 121428Z 1214/1312 VRB04KT P6SM -RA SCT003 OVC018
      TEMPO 1214/1216 2SM -RA BR BKN003 OVC008
     FM121600 06007KT 4SM -RA BR SCT008 OVC018
     FM122100 10008KT 5SM -RA BR BKN018 OVC025
     FM130300 10006KT P6SM -RA BKN040 OVC060
      AMD LTD TO CLD VIS AND WIND=

USA.gov is the U.S. government's official web portal to all federal, state and local government web resources and services.